Terminal Aerodrome Forecast
Issued by NWS Albany, NY

Home | Current Version | Previous Version | Text Only | Print | Product List | Glossary On
Versions: 1 2 3 4 5 6 7 8 9 10 11 12 13 14 15 16 17 18 19 20 21 22
000
FTUS41 KALY 292028 AAC
TAFALB
TAF AMD
KALB 292028Z 2920/3018 21010KT P6SM BKN070 OVC140
     FM292100 20012KT P6SM VCSH BKN060 OVC090
     FM300600 17005KT 6SM BR OVC060
     FM301100 VRB03KT P6SM SCT035
     FM301600 36005KT P6SM SCT250=

USA.gov is the U.S. government's official web portal to all federal, state and local government web resources and services.